createdAt,value
2023-07-16T00:04:39.211Z,20.04
2023-07-16T00:09:44.028Z,19.97
2023-07-16T00:14:50.394Z,19.91
2023-07-16T00:19:54.641Z,19.86
2023-07-16T00:24:58.733Z,19.78
2023-07-16T00:30:03.114Z,19.72
2023-07-16T00:35:08.175Z,19.67
2023-07-16T00:40:12.835Z,19.62
2023-07-16T00:45:17.492Z,19.58
2023-07-16T00:50:22.124Z,19.53
2023-07-16T00:55:26.034Z,19.46
2023-07-16T01:00:30.563Z,19.39
2023-07-16T01:06:09.110Z,19.66
2023-07-16T01:11:14.482Z,20.55
2023-07-16T01:16:26.716Z,21.04
2023-07-16T01:22:09.547Z,21.37
2023-07-16T01:27:27.100Z,21.17
2023-07-16T01:32:36.062Z,20.50
2023-07-16T01:37:40.377Z,20.06
2023-07-16T01:42:44.497Z,19.77
2023-07-16T01:48:24.887Z,19.56
2023-07-16T01:53:29.338Z,19.37
2023-07-16T01:58:33.465Z,19.55
2023-07-16T02:03:37.667Z,20.24
2023-07-16T02:08:42.035Z,20.51
2023-07-16T02:13:46.106Z,20.58
2023-07-16T02:18:50.352Z,20.07
2023-07-16T02:23:54.454Z,19.60
2023-07-16T02:29:00.670Z,19.53
2023-07-16T02:34:04.658Z,20.01
2023-07-16T02:39:09.314Z,20.33
2023-07-16T02:44:13.534Z,20.62
2023-07-16T02:49:17.534Z,20.74
2023-07-16T02:54:21.530Z,20.84
2023-07-16T02:59:25.863Z,20.95
2023-07-16T03:04:29.984Z,21.08
2023-07-16T03:09:34.406Z,21.17
2023-07-16T03:14:38.551Z,21.24
2023-07-16T03:19:42.623Z,21.09
2023-07-16T03:24:48.319Z,20.47
2023-07-16T03:29:52.266Z,20.08
2023-07-16T03:34:56.308Z,20.15
2023-07-16T03:40:20.510Z,20.75
2023-07-16T03:45:25.584Z,21.14
2023-07-16T03:50:29.624Z,21.44
2023-07-16T03:55:33.861Z,21.65
2023-07-16T04:00:37.983Z,21.92
2023-07-16T04:05:42.217Z,22.12
2023-07-16T04:10:46.653Z,22.32
2023-07-16T04:15:51.109Z,22.53
2023-07-16T04:20:58.927Z,22.25
2023-07-16T04:29:32.896Z,21.91
2023-07-16T04:34:40.132Z,22.55
2023-07-16T04:39:46.373Z,23.10
2023-07-16T04:44:53.052Z,23.39
2023-07-16T04:50:02.410Z,23.27
2023-07-16T04:55:10.412Z,23.18
2023-07-16T05:00:16.166Z,23.21
2023-07-16T05:05:23.012Z,23.31
2023-07-16T05:10:30.279Z,23.48
2023-07-16T05:15:34.967Z,23.65
2023-07-16T05:20:39.093Z,23.84
2023-07-16T05:25:51.188Z,24.09
2023-07-16T05:31:04.924Z,24.35
2023-07-16T05:36:08.911Z,24.62
2023-07-16T05:41:13.055Z,24.84
2023-07-16T05:46:18.631Z,25.08
2023-07-16T05:51:23.221Z,25.42
2023-07-16T05:56:28.285Z,25.67
2023-07-16T06:01:32.569Z,26.06
2023-07-16T06:06:37.101Z,26.41
2023-07-16T06:11:41.535Z,26.73
2023-07-16T06:16:45.624Z,27.14
2023-07-16T06:21:49.902Z,27.47
2023-07-16T06:26:54.030Z,27.71
2023-07-16T06:32:00.205Z,27.98
2023-07-16T06:37:04.948Z,28.24
2023-07-16T06:42:09.193Z,28.51
2023-07-16T06:47:13.432Z,28.89
2023-07-16T06:52:23.929Z,29.32
2023-07-16T06:57:28.166Z,29.13
2023-07-16T07:02:32.292Z,28.84
2023-07-16T07:07:36.596Z,28.75
2023-07-16T07:12:41.428Z,28.81
2023-07-16T07:17:48.020Z,29.00
2023-07-16T07:22:52.098Z,29.30
2023-07-16T07:27:57.784Z,29.71
2023-07-16T07:33:02.971Z,30.17
2023-07-16T07:38:07.262Z,30.37
2023-07-16T07:43:11.491Z,30.72
2023-07-16T07:48:16.137Z,30.91
2023-07-16T07:53:20.292Z,30.79
2023-07-16T07:58:25.121Z,30.64
2023-07-16T08:03:29.312Z,30.64
2023-07-16T08:08:34.342Z,30.59
2023-07-16T08:13:38.489Z,30.58
2023-07-16T08:18:43.241Z,30.78
2023-07-16T08:23:51.940Z,30.98
2023-07-16T08:28:56.197Z,31.17
2023-07-16T08:34:03.198Z,31.39
2023-07-16T08:39:09.492Z,31.65
2023-07-16T08:44:14.642Z,31.89
2023-07-16T08:49:21.325Z,32.05
2023-07-16T08:54:27.086Z,32.24
2023-07-16T08:59:32.731Z,32.57
2023-07-16T09:04:36.803Z,32.73
2023-07-16T09:09:41.428Z,32.91
2023-07-16T09:14:46.792Z,33.19
2023-07-16T09:19:53.448Z,33.30
2023-07-16T09:25:00.109Z,33.53
2023-07-16T09:30:08.891Z,33.85
2023-07-16T09:35:20.267Z,34.01
2023-07-16T09:40:26.312Z,34.23
2023-07-16T09:45:30.670Z,34.46
2023-07-16T09:50:37.711Z,34.54
2023-07-16T09:56:15.226Z,34.28
2023-07-16T10:01:20.283Z,33.84
2023-07-16T10:06:24.181Z,33.56
2023-07-16T10:11:28.483Z,33.45
2023-07-16T10:16:39.967Z,33.32
2023-07-16T10:21:47.402Z,33.34
2023-07-16T10:26:53.377Z,33.60
2023-07-16T10:32:00.036Z,33.93
2023-07-16T10:37:05.509Z,34.16
2023-07-16T10:42:09.787Z,34.46
2023-07-16T10:47:35.879Z,34.50
2023-07-16T10:52:40.160Z,34.50
2023-07-16T10:57:44.000Z,34.21
2023-07-16T11:02:49.048Z,33.92
2023-07-16T11:07:55.526Z,33.67
2023-07-16T11:13:02.467Z,33.50
2023-07-16T11:18:06.621Z,33.28
2023-07-16T11:23:12.712Z,33.01
2023-07-16T11:28:17.389Z,32.83
2023-07-16T11:38:52.802Z,32.55
2023-07-16T11:44:03.371Z,32.45
2023-07-16T11:49:07.741Z,32.34
2023-07-16T11:54:12.540Z,32.29
2023-07-16T11:59:21.938Z,32.16
2023-07-16T12:04:27.989Z,32.07
2023-07-16T12:09:48.254Z,31.92
2023-07-16T12:14:56.964Z,31.60
2023-07-16T12:20:02.144Z,31.22
2023-07-16T12:25:08.166Z,30.86
2023-07-16T12:30:14.404Z,30.58
2023-07-16T12:35:18.521Z,30.35
2023-07-16T12:40:22.966Z,30.15
2023-07-16T12:45:27.108Z,29.95
2023-07-16T12:50:31.537Z,29.75
2023-07-16T12:55:36.360Z,29.47
2023-07-16T13:00:41.359Z,29.25
2023-07-16T13:05:46.899Z,29.12
2023-07-16T13:10:50.828Z,29.05
2023-07-16T13:15:56.033Z,28.94
2023-07-16T13:21:02.379Z,28.99
2023-07-16T13:26:07.669Z,29.16
2023-07-16T13:31:12.498Z,29.33
2023-07-16T13:36:17.156Z,29.57
2023-07-16T13:41:23.071Z,29.75
2023-07-16T13:46:26.881Z,29.94
2023-07-16T13:51:30.971Z,30.35
2023-07-16T13:56:35.202Z,30.65
2023-07-16T14:01:43.542Z,30.90
2023-07-16T14:06:49.207Z,31.28
2023-07-16T14:11:55.097Z,31.82
2023-07-16T14:16:59.599Z,32.28
2023-07-16T14:22:04.614Z,32.50
2023-07-16T14:27:09.726Z,32.35
2023-07-16T14:32:14.673Z,32.42
2023-07-16T14:37:19.329Z,32.54
2023-07-16T14:42:23.812Z,32.69
2023-07-16T14:47:28.165Z,32.76
2023-07-16T14:52:32.249Z,32.69
2023-07-16T14:57:37.179Z,32.58
2023-07-16T15:02:43.755Z,32.44
2023-07-16T15:07:49.673Z,32.47
2023-07-16T15:12:56.088Z,32.59
2023-07-16T15:18:01.900Z,32.97
2023-07-16T15:23:08.869Z,34.12
2023-07-16T15:28:13.707Z,35.44
2023-07-16T15:33:22.636Z,36.56
2023-07-16T15:38:29.048Z,37.49
2023-07-16T15:43:33.570Z,37.92
2023-07-16T15:48:37.985Z,37.94
2023-07-16T15:53:44.893Z,38.17
2023-07-16T15:58:48.927Z,38.50
2023-07-16T16:03:56.469Z,38.47
2023-07-16T16:09:00.451Z,38.46
2023-07-16T16:14:10.658Z,38.49
2023-07-16T16:19:15.146Z,37.97
2023-07-16T16:24:26.622Z,37.40
2023-07-16T16:29:38.329Z,36.15
2023-07-16T16:34:48.932Z,36.08
2023-07-16T16:39:56.267Z,36.77
2023-07-16T16:45:06.693Z,36.31
2023-07-16T16:50:11.439Z,35.28
2023-07-16T16:55:17.439Z,34.83
2023-07-16T17:00:22.481Z,34.91
2023-07-16T17:05:28.832Z,34.87
2023-07-16T17:10:34.372Z,34.83
2023-07-16T17:15:54.934Z,34.34
2023-07-16T17:21:19.192Z,33.13
2023-07-16T17:26:27.851Z,32.11
2023-07-16T17:31:35.937Z,31.40
2023-07-16T17:36:45.419Z,30.88
2023-07-16T17:41:50.450Z,30.53
2023-07-16T17:47:12.395Z,30.26
2023-07-16T17:52:25.568Z,29.92
2023-07-16T17:57:33.389Z,29.64
2023-07-16T18:02:42.930Z,29.35
2023-07-16T18:07:52.254Z,28.95
2023-07-16T18:12:57.751Z,28.59
2023-07-16T18:18:02.817Z,28.22
2023-07-16T18:23:07.320Z,27.86
2023-07-16T18:28:11.980Z,27.46
2023-07-16T18:33:16.212Z,27.06
2023-07-16T18:38:21.283Z,26.71
2023-07-16T18:43:27.900Z,26.45
2023-07-16T18:48:35.701Z,26.21
2023-07-16T18:53:40.324Z,25.94
2023-07-16T18:58:45.291Z,25.69
2023-07-16T19:03:49.549Z,25.46
2023-07-16T19:08:53.980Z,25.26
2023-07-16T19:13:59.030Z,25.05
2023-07-16T19:19:03.142Z,24.83
2023-07-16T19:24:07.898Z,24.59
2023-07-16T19:29:12.042Z,24.39
2023-07-16T19:34:16.579Z,24.41
2023-07-16T19:39:21.111Z,24.68
2023-07-16T19:44:25.959Z,24.87
2023-07-16T19:49:30.404Z,24.93
2023-07-16T19:54:36.019Z,24.92
2023-07-16T19:59:40.317Z,24.97
2023-07-16T20:04:45.078Z,25.66
2023-07-16T20:09:52.590Z,26.52
2023-07-16T20:14:56.713Z,26.24
2023-07-16T20:20:02.186Z,25.33
2023-07-16T20:25:08.580Z,24.68
2023-07-16T20:30:13.332Z,24.54
2023-07-16T20:35:17.721Z,25.17
2023-07-16T20:40:22.398Z,25.69
2023-07-16T20:45:30.332Z,25.24
2023-07-16T20:50:34.345Z,24.37
2023-07-16T20:55:39.010Z,24.34
2023-07-16T21:00:43.512Z,25.68
2023-07-16T21:05:47.403Z,25.39
2023-07-16T21:10:53.645Z,24.21
2023-07-16T21:15:57.710Z,23.51
2023-07-16T21:21:01.842Z,23.80
2023-07-16T21:26:06.456Z,25.17
2023-07-16T21:31:11.903Z,24.21
2023-07-16T21:36:16.166Z,23.33
2023-07-16T21:41:20.909Z,23.96
2023-07-16T21:46:24.920Z,24.56
2023-07-16T21:51:31.733Z,24.50
2023-07-16T21:56:37.538Z,23.40
2023-07-16T22:01:41.770Z,23.45
2023-07-16T22:06:46.182Z,24.87
2023-07-16T22:11:50.405Z,25.33
2023-07-16T22:16:54.956Z,24.83
2023-07-16T22:21:59.101Z,23.46
2023-07-16T22:27:03.351Z,22.58
2023-07-16T22:32:08.494Z,23.35
2023-07-16T22:37:14.080Z,24.24
2023-07-16T22:42:18.309Z,24.58
2023-07-16T22:47:22.561Z,24.50
2023-07-16T22:52:27.409Z,24.42
2023-07-16T22:57:31.518Z,24.39
2023-07-16T23:02:36.188Z,24.28
2023-07-16T23:07:44.547Z,24.09
2023-07-16T23:12:48.835Z,23.93
2023-07-16T23:17:53.025Z,23.69
2023-07-16T23:22:59.641Z,23.47
2023-07-16T23:28:05.047Z,23.22
2023-07-16T23:33:09.443Z,23.00
2023-07-16T23:38:13.907Z,23.03
2023-07-16T23:43:18.048Z,23.09
2023-07-16T23:48:22.286Z,23.87
2023-07-16T23:53:26.362Z,23.89
2023-07-16T23:58:30.684Z,23.78
